createdAt,value
2022-09-25T00:01:11.690Z,6.90
2022-09-25T00:03:40.669Z,6.80
2022-09-25T00:06:10.533Z,6.70
2022-09-25T00:08:40.255Z,6.60
2022-09-25T00:11:09.834Z,6.70
2022-09-25T00:13:38.387Z,6.80
2022-09-25T00:16:06.518Z,6.80
2022-09-25T00:18:52.058Z,6.90
2022-09-25T00:21:20.197Z,6.70
2022-09-25T00:23:50.375Z,6.40
2022-09-25T00:26:18.522Z,6.40
2022-09-25T00:28:46.290Z,6.30
2022-09-25T00:31:21.179Z,6.30
2022-09-25T00:33:48.981Z,6.40
2022-09-25T00:36:16.717Z,6.30
2022-09-25T00:38:46.180Z,6.30
2022-09-25T00:41:16.964Z,6.30
2022-09-25T00:43:46.641Z,6.30
2022-09-25T00:46:19.310Z,6.20
2022-09-25T00:48:51.352Z,6.20
2022-09-25T00:51:22.998Z,6.20
2022-09-25T00:53:51.099Z,6.10
2022-09-25T00:56:20.520Z,6.20
2022-09-25T00:58:48.970Z,6.10
2022-09-25T01:01:17.701Z,6.00
2022-09-25T01:03:46.567Z,6.00
2022-09-25T01:06:16.065Z,6.00
2022-09-25T01:08:45.958Z,6.00
2022-09-25T01:11:13.736Z,6.10
2022-09-25T01:13:43.041Z,6.30
2022-09-25T01:16:17.141Z,6.40
2022-09-25T01:18:59.059Z,6.40
2022-09-25T01:21:43.233Z,6.30
2022-09-25T01:24:48.504Z,6.20
2022-09-25T01:27:38.931Z,6.10
2022-09-25T01:30:11.684Z,6.00
2022-09-25T01:32:51.711Z,5.80
2022-09-25T01:35:29.762Z,5.80
2022-09-25T01:38:00.719Z,5.80
2022-09-25T01:40:33.601Z,5.80
2022-09-25T01:43:08.901Z,5.80
2022-09-25T01:45:44.509Z,5.90
2022-09-25T01:48:17.860Z,5.90
2022-09-25T01:50:50.589Z,5.80
2022-09-25T01:53:24.357Z,5.90
2022-09-25T01:55:56.121Z,5.90
2022-09-25T01:58:29.024Z,5.80
2022-09-25T02:01:04.969Z,5.80
2022-09-25T02:03:37.773Z,5.90
2022-09-25T02:06:10.281Z,6.10
2022-09-25T02:08:44.001Z,6.30
2022-09-25T02:11:14.186Z,6.30
2022-09-25T02:13:49.141Z,6.30
2022-09-25T02:16:20.598Z,6.50
2022-09-25T02:19:07.342Z,6.50
2022-09-25T02:21:51.777Z,6.50
2022-09-25T02:24:25.036Z,6.40
2022-09-25T02:26:53.145Z,6.30
2022-09-25T02:29:21.317Z,6.20
2022-09-25T02:31:55.491Z,6.10
2022-09-25T02:34:24.116Z,6.20
2022-09-25T02:36:52.257Z,6.10
2022-09-25T02:39:23.143Z,6.10
2022-09-25T02:42:09.423Z,6.20
2022-09-25T02:44:51.177Z,6.30
2022-09-25T02:47:32.994Z,6.30
2022-09-25T02:50:11.475Z,6.40
2022-09-25T02:52:47.464Z,6.50
2022-09-25T02:55:22.752Z,6.50
2022-09-25T02:57:55.139Z,6.50
2022-09-25T03:00:23.553Z,6.50
2022-09-25T03:02:56.324Z,6.50
2022-09-25T03:05:25.984Z,6.60
2022-09-25T03:08:12.270Z,6.60
2022-09-25T03:10:41.209Z,6.60
2022-09-25T03:13:16.950Z,6.60
2022-09-25T03:15:47.589Z,6.70
2022-09-25T03:18:17.115Z,6.80
2022-09-25T03:20:45.031Z,6.80
2022-09-25T03:23:12.784Z,7.00
2022-09-25T03:25:42.000Z,7.00
2022-09-25T03:28:13.382Z,6.90
2022-09-25T03:30:41.916Z,6.80
2022-09-25T03:33:10.607Z,6.80
2022-09-25T03:35:40.414Z,6.70
2022-09-25T03:38:10.294Z,6.70
2022-09-25T03:40:38.096Z,6.60
2022-09-25T03:45:32.705Z,6.40
2022-09-25T03:48:00.444Z,6.40
2022-09-25T03:50:28.241Z,6.40
2022-09-25T03:52:57.389Z,6.40
2022-09-25T03:55:25.972Z,6.40
2022-09-25T03:57:53.820Z,6.40
2022-09-25T04:00:21.594Z,6.40
2022-09-25T04:02:50.379Z,6.40
2022-09-25T04:05:18.952Z,6.40
2022-09-25T04:07:48.162Z,6.50
2022-09-25T04:10:17.432Z,6.60
2022-09-25T04:12:45.264Z,6.70
2022-09-25T04:15:13.021Z,6.80
2022-09-25T04:17:40.835Z,6.90
2022-09-25T04:20:09.697Z,7.00
2022-09-25T04:22:37.500Z,7.00
2022-09-25T04:25:06.042Z,7.00
2022-09-25T04:27:35.160Z,6.90
2022-09-25T04:30:02.934Z,6.90
2022-09-25T04:32:48.226Z,7.00
2022-09-25T04:35:16.141Z,6.90
2022-09-25T04:37:43.935Z,6.90
2022-09-25T04:40:12.141Z,6.80
2022-09-25T04:42:41.948Z,6.90
2022-09-25T04:45:10.432Z,6.90
2022-09-25T04:47:38.302Z,6.90
2022-09-25T04:50:06.783Z,7.00
2022-09-25T04:52:34.571Z,7.10
2022-09-25T04:55:03.498Z,7.10
2022-09-25T04:57:56.596Z,7.20
2022-09-25T05:00:20.902Z,7.20
2022-09-25T05:02:49.673Z,7.30
2022-09-25T05:05:19.077Z,7.30
2022-09-25T05:07:53.420Z,7.40
2022-09-25T05:10:21.796Z,7.40
2022-09-25T05:12:50.295Z,7.40
2022-09-25T05:15:18.096Z,7.50
2022-09-25T05:17:47.216Z,7.50
2022-09-25T05:20:15.152Z,7.50
2022-09-25T05:22:42.923Z,7.50
2022-09-25T05:25:10.996Z,7.50
2022-09-25T05:27:38.802Z,7.60
2022-09-25T05:30:09.478Z,7.60
2022-09-25T05:32:37.306Z,7.70
2022-09-25T05:35:07.880Z,7.60
2022-09-25T05:37:35.613Z,7.60
2022-09-25T05:40:03.730Z,7.70
2022-09-25T05:42:32.076Z,7.80
2022-09-25T05:45:04.931Z,7.80
2022-09-25T05:47:35.116Z,7.80
2022-09-25T05:50:04.070Z,8.00
2022-09-25T05:52:33.353Z,8.00
2022-09-25T05:55:03.147Z,8.00
2022-09-25T05:57:32.417Z,7.90
2022-09-25T06:00:00.198Z,7.90
2022-09-25T06:02:28.261Z,7.90
2022-09-25T06:04:56.153Z,8.00
2022-09-25T06:07:24.002Z,8.00
2022-09-25T06:09:53.070Z,8.10
2022-09-25T06:12:23.055Z,8.20
2022-09-25T06:14:51.613Z,8.30
2022-09-25T06:17:19.501Z,8.40
2022-09-25T06:19:47.400Z,8.40
2022-09-25T06:22:15.322Z,8.40
2022-09-25T06:24:43.109Z,8.40
2022-09-25T06:27:12.287Z,8.50
2022-09-25T06:29:40.031Z,8.50
2022-09-25T06:32:07.768Z,8.70
2022-09-25T06:34:35.496Z,8.70
2022-09-25T06:37:03.401Z,8.70
2022-09-25T06:39:33.120Z,8.80
2022-09-25T06:42:00.981Z,8.90
2022-09-25T06:44:30.116Z,9.10
2022-09-25T06:46:59.725Z,9.20
2022-09-25T06:49:27.594Z,9.20
2022-09-25T06:51:55.370Z,9.20
2022-09-25T06:54:23.094Z,9.20
2022-09-25T06:56:50.891Z,9.10
2022-09-25T06:59:18.788Z,8.70
2022-09-25T07:01:47.966Z,8.60
2022-09-25T07:04:14.933Z,8.50
2022-09-25T07:06:44.018Z,8.60
2022-09-25T07:09:11.770Z,8.60
2022-09-25T07:11:44.053Z,8.60
2022-09-25T07:14:11.899Z,8.70
2022-09-25T07:16:39.749Z,8.80
2022-09-25T07:19:10.422Z,8.80
2022-09-25T07:21:38.330Z,9.00
2022-09-25T07:24:06.911Z,9.10
2022-09-25T07:26:36.211Z,9.20
2022-09-25T07:29:07.815Z,9.30
2022-09-25T07:31:37.791Z,9.30
2022-09-25T07:34:09.254Z,9.40
2022-09-25T07:36:39.968Z,9.50
2022-09-25T07:39:08.365Z,9.60
2022-09-25T07:41:37.556Z,9.80
2022-09-25T07:44:24.761Z,9.80
2022-09-25T07:46:53.376Z,9.90
2022-09-25T07:49:21.114Z,10.00
2022-09-25T07:51:50.313Z,10.10
2022-09-25T07:54:18.082Z,10.30
2022-09-25T07:56:45.878Z,10.30
2022-09-25T07:59:14.191Z,10.40
2022-09-25T08:01:45.492Z,10.50
2022-09-25T08:04:15.087Z,10.60
2022-09-25T08:06:42.842Z,10.60
2022-09-25T08:09:13.106Z,10.60
2022-09-25T08:11:41.196Z,10.80
2022-09-25T08:14:09.605Z,10.80
2022-09-25T08:16:37.476Z,11.00
2022-09-25T08:19:05.248Z,11.20
2022-09-25T08:21:33.178Z,11.20
2022-09-25T08:24:01.253Z,11.30
2022-09-25T08:26:31.800Z,11.40
2022-09-25T08:29:00.073Z,11.60
2022-09-25T08:31:28.184Z,11.90
2022-09-25T08:33:56.092Z,12.30
2022-09-25T08:36:23.966Z,12.80
2022-09-25T08:38:56.054Z,12.60
2022-09-25T08:41:26.846Z,12.70
2022-09-25T08:44:04.905Z,13.00
2022-09-25T08:46:58.934Z,13.10
2022-09-25T08:49:32.403Z,12.80
2022-09-25T08:52:03.138Z,12.80
2022-09-25T08:54:33.071Z,13.20
2022-09-25T08:57:05.828Z,13.60
2022-09-25T08:59:38.163Z,13.40
2022-09-25T09:02:15.659Z,13.30
2022-09-25T09:04:48.306Z,13.90
2022-09-25T09:07:26.738Z,14.20
2022-09-25T09:10:01.908Z,14.00
2022-09-25T09:12:36.341Z,14.20
2022-09-25T09:15:17.801Z,14.40
2022-09-25T09:17:45.537Z,14.90
2022-09-25T09:20:18.515Z,15.30
2022-09-25T09:22:50.747Z,15.30
2022-09-25T09:25:29.042Z,15.00
2022-09-25T09:28:23.225Z,15.00
2022-09-25T09:30:59.975Z,15.10
2022-09-25T09:33:41.619Z,15.20
2022-09-25T09:36:15.842Z,14.70
2022-09-25T09:38:51.964Z,14.60
2022-09-25T09:41:32.293Z,13.90
2022-09-25T09:44:12.220Z,14.00
2022-09-25T09:46:49.647Z,13.90
2022-09-25T09:49:19.815Z,13.60
2022-09-25T09:51:55.190Z,13.90
2022-09-25T09:54:30.068Z,13.20
2022-09-25T09:57:00.607Z,13.20
2022-09-25T09:59:32.360Z,13.30
2022-09-25T10:02:05.085Z,13.40
2022-09-25T10:04:37.329Z,13.60
2022-09-25T10:07:08.821Z,13.50
2022-09-25T10:09:37.286Z,13.40
2022-09-25T10:12:08.576Z,13.40
2022-09-25T10:14:40.301Z,13.50
2022-09-25T10:17:12.151Z,13.50
2022-09-25T10:19:50.155Z,13.70
2022-09-25T10:22:20.690Z,14.00
2022-09-25T10:24:55.190Z,14.10
2022-09-25T10:27:35.004Z,14.10
2022-09-25T10:30:14.542Z,14.00
2022-09-25T10:32:57.504Z,14.20
2022-09-25T10:35:29.169Z,13.90
2022-09-25T10:37:59.093Z,13.80
2022-09-25T10:40:31.695Z,13.70
2022-09-25T10:43:23.494Z,13.70
2022-09-25T10:45:54.196Z,14.00
2022-09-25T10:48:49.888Z,13.90
2022-09-25T10:51:19.850Z,13.80
2022-09-25T10:53:49.337Z,14.10
2022-09-25T10:56:21.401Z,14.70
2022-09-25T10:58:54.842Z,15.10
2022-09-25T11:01:30.436Z,15.50
2022-09-25T11:04:00.443Z,15.30
2022-09-25T11:06:29.542Z,15.60
2022-09-25T11:09:05.083Z,15.50
2022-09-25T11:11:33.049Z,15.00
2022-09-25T11:14:04.515Z,14.60
2022-09-25T11:16:53.586Z,14.60
2022-09-25T11:19:31.685Z,14.50
2022-09-25T11:22:10.432Z,13.90
2022-09-25T11:24:48.265Z,13.40
2022-09-25T11:27:20.564Z,13.20
2022-09-25T11:29:55.813Z,13.10
2022-09-25T11:32:29.145Z,13.10
2022-09-25T11:35:13.814Z,13.00
2022-09-25T11:37:55.607Z,13.10
2022-09-25T11:40:50.836Z,13.20
2022-09-25T11:43:26.616Z,13.50
2022-09-25T11:46:02.781Z,13.70
2022-09-25T11:48:40.395Z,13.80
2022-09-25T11:51:22.222Z,13.80
2022-09-25T11:54:17.907Z,13.60
2022-09-25T11:56:56.841Z,13.90
2022-09-25T11:59:39.508Z,14.10
2022-09-25T12:02:24.334Z,14.30
2022-09-25T12:05:19.052Z,14.30
2022-09-25T12:08:10.095Z,14.20
2022-09-25T12:10:49.061Z,14.00
2022-09-25T12:13:23.717Z,14.10
2022-09-25T12:16:02.743Z,13.80
2022-09-25T12:18:49.489Z,13.90
2022-09-25T12:21:22.118Z,14.20
2022-09-25T12:23:59.104Z,14.30
2022-09-25T12:26:36.920Z,14.40
2022-09-25T12:29:17.294Z,14.60
2022-09-25T12:31:53.501Z,14.30
2022-09-25T12:34:37.728Z,14.60
2022-09-25T12:37:22.159Z,14.60
2022-09-25T12:39:59.433Z,14.70
2022-09-25T12:42:39.691Z,14.30
2022-09-25T12:45:16.909Z,14.20
2022-09-25T12:48:01.882Z,14.50
2022-09-25T12:50:34.056Z,15.20
2022-09-25T12:53:06.569Z,15.20
2022-09-25T12:55:42.094Z,15.10
2022-09-25T12:58:18.285Z,14.80
2022-09-25T13:00:49.505Z,14.90
2022-09-25T13:03:22.609Z,15.20
2022-09-25T13:05:56.205Z,15.30
2022-09-25T13:08:28.733Z,15.10
2022-09-25T13:11:02.603Z,14.90
2022-09-25T13:13:37.345Z,14.60
2022-09-25T13:16:05.278Z,14.80
2022-09-25T13:18:34.310Z,15.10
2022-09-25T13:21:24.547Z,15.20
2022-09-25T13:23:54.110Z,15.20
2022-09-25T13:26:26.977Z,15.30
2022-09-25T13:28:58.689Z,15.00
2022-09-25T13:31:28.520Z,15.30
2022-09-25T13:34:03.429Z,15.20
2022-09-25T13:36:46.724Z,15.10
2022-09-25T13:39:40.513Z,15.00
2022-09-25T13:42:22.286Z,15.00
2022-09-25T13:44:57.518Z,14.60
2022-09-25T13:47:49.777Z,14.60
2022-09-25T13:50:29.413Z,14.80
2022-09-25T13:53:20.173Z,14.70
2022-09-25T13:56:24.998Z,14.70
2022-09-25T13:59:27.902Z,14.50
2022-09-25T14:02:24.456Z,14.60
2022-09-25T14:04:52.647Z,15.00
2022-09-25T14:07:24.233Z,15.20
2022-09-25T14:09:55.241Z,15.00
2022-09-25T14:12:29.821Z,14.80
2022-09-25T14:15:04.379Z,14.80
2022-09-25T14:17:33.152Z,15.10
2022-09-25T14:20:03.520Z,15.00
2022-09-25T14:22:46.023Z,15.00
2022-09-25T14:25:32.969Z,14.80
2022-09-25T14:28:01.956Z,14.60
2022-09-25T14:30:32.900Z,14.60
2022-09-25T14:33:16.165Z,14.50
2022-09-25T14:35:52.607Z,14.40
2022-09-25T14:38:46.133Z,14.20
2022-09-25T14:41:46.518Z,14.10
2022-09-25T14:44:54.070Z,14.20
2022-09-25T14:47:23.683Z,14.10
2022-09-25T14:49:53.869Z,14.10
2022-09-25T14:52:25.830Z,14.00
2022-09-25T14:54:56.976Z,14.00
2022-09-25T14:57:27.814Z,13.90
2022-09-25T14:59:58.934Z,14.00
2022-09-25T15:02:32.413Z,13.90
2022-09-25T15:05:00.777Z,14.10
2022-09-25T15:07:28.844Z,14.20
2022-09-25T15:09:57.663Z,14.30
2022-09-25T15:12:29.209Z,14.00
2022-09-25T15:15:01.651Z,13.90
2022-09-25T15:17:31.690Z,14.00
2022-09-25T15:20:03.473Z,14.10
2022-09-25T15:22:35.490Z,14.00
2022-09-25T15:25:07.029Z,14.00
2022-09-25T15:27:36.970Z,14.00
2022-09-25T15:30:06.576Z,13.80
2022-09-25T15:32:40.375Z,13.80
2022-09-25T15:35:17.333Z,13.80
2022-09-25T15:37:45.947Z,13.70
2022-09-25T15:40:22.809Z,13.70
2022-09-25T15:42:51.118Z,13.70
2022-09-25T15:45:44.642Z,13.60
2022-09-25T15:48:29.052Z,13.60
2022-09-25T15:50:58.720Z,13.60
2022-09-25T15:53:29.934Z,13.70
2022-09-25T15:56:15.482Z,13.80
2022-09-25T15:58:47.533Z,13.90
2022-09-25T16:01:36.944Z,13.90
2022-09-25T16:04:25.442Z,14.10
2022-09-25T16:06:53.545Z,14.10
2022-09-25T16:09:33.043Z,13.80
2022-09-25T16:12:19.228Z,13.70
2022-09-25T16:14:47.308Z,13.70
2022-09-25T16:17:22.751Z,13.70
2022-09-25T16:20:01.768Z,13.50
2022-09-25T16:22:38.386Z,13.40
2022-09-25T16:25:21.002Z,13.30
2022-09-25T16:27:49.169Z,13.10
2022-09-25T16:30:19.066Z,13.10
2022-09-25T16:32:49.920Z,13.00
2022-09-25T16:35:26.035Z,13.00
2022-09-25T16:37:55.043Z,12.90
2022-09-25T16:40:28.778Z,12.70
2022-09-25T16:42:58.734Z,12.70
2022-09-25T16:45:29.608Z,12.60
2022-09-25T16:47:58.767Z,12.50
2022-09-25T16:50:33.340Z,12.50
2022-09-25T16:53:03.475Z,12.30
2022-09-25T16:55:34.089Z,12.20
2022-09-25T16:58:02.430Z,12.20
2022-09-25T17:00:30.867Z,12.20
2022-09-25T17:02:58.717Z,12.10
2022-09-25T17:05:29.900Z,12.10
2022-09-25T17:07:59.872Z,12.00
2022-09-25T17:10:31.712Z,12.10
2022-09-25T17:13:02.409Z,12.00
2022-09-25T17:15:33.625Z,12.00
2022-09-25T17:18:01.968Z,11.90
2022-09-25T17:20:31.976Z,11.80
2022-09-25T17:23:01.129Z,11.80
2022-09-25T17:25:40.476Z,11.70
2022-09-25T17:28:10.173Z,11.60
2022-09-25T17:30:38.508Z,11.50
2022-09-25T17:33:06.697Z,11.50
2022-09-25T17:35:43.632Z,11.50
2022-09-25T17:38:13.142Z,11.40
2022-09-25T17:40:43.410Z,11.40
2022-09-25T17:43:12.471Z,11.30
2022-09-25T17:45:45.994Z,11.30
2022-09-25T17:48:13.829Z,11.30
2022-09-25T17:50:45.425Z,11.20
2022-09-25T17:53:17.810Z,11.30
2022-09-25T17:55:51.172Z,11.30
2022-09-25T17:58:22.006Z,11.20
2022-09-25T18:00:50.465Z,11.20
2022-09-25T18:03:18.874Z,11.20
2022-09-25T18:05:48.792Z,11.10
2022-09-25T18:08:16.570Z,11.10
2022-09-25T18:10:44.382Z,11.10
2022-09-25T18:13:14.770Z,11.10
2022-09-25T18:15:48.901Z,11.10
2022-09-25T18:18:16.752Z,11.10
2022-09-25T18:21:05.790Z,11.00
2022-09-25T18:23:39.103Z,11.00
2022-09-25T18:26:09.067Z,10.90
2022-09-25T18:28:36.863Z,10.90
2022-09-25T18:31:04.669Z,10.80
2022-09-25T18:33:32.429Z,10.70
2022-09-25T18:36:00.472Z,10.70
2022-09-25T18:38:28.193Z,10.80
2022-09-25T18:40:57.286Z,10.80
2022-09-25T18:43:25.277Z,10.80
2022-09-25T18:45:53.098Z,10.80
2022-09-25T18:48:21.278Z,10.90
2022-09-25T18:50:49.708Z,10.90
2022-09-25T18:53:18.439Z,10.90
2022-09-25T18:55:46.262Z,10.90
2022-09-25T18:58:15.325Z,10.90
2022-09-25T19:00:43.195Z,10.80
2022-09-25T19:03:11.013Z,10.70
2022-09-25T19:05:39.221Z,10.60
2022-09-25T19:08:06.986Z,10.60
2022-09-25T19:10:35.211Z,10.60
2022-09-25T19:13:03.109Z,10.50
2022-09-25T19:15:33.289Z,10.50
2022-09-25T19:18:01.090Z,10.60
2022-09-25T19:20:28.901Z,10.60
2022-09-25T19:22:56.673Z,10.60
2022-09-25T19:25:24.441Z,10.70
2022-09-25T19:27:52.251Z,10.70
2022-09-25T19:30:20.050Z,10.60
2022-09-25T19:32:50.837Z,10.60
2022-09-25T19:35:18.908Z,10.60
2022-09-25T19:37:46.695Z,10.60
2022-09-25T19:40:31.917Z,10.60
2022-09-25T19:43:01.044Z,10.60
2022-09-25T19:45:29.443Z,10.50
2022-09-25T19:47:58.629Z,10.50
2022-09-25T19:50:26.420Z,10.50
2022-09-25T19:52:54.653Z,10.50
2022-09-25T19:55:22.484Z,10.60
2022-09-25T19:57:50.340Z,10.60
2022-09-25T20:00:18.369Z,10.50
2022-09-25T20:02:47.473Z,10.60
2022-09-25T20:05:17.744Z,10.50
2022-09-25T20:07:45.502Z,10.50
2022-09-25T20:10:13.718Z,10.50
2022-09-25T20:12:41.462Z,10.50
2022-09-25T20:15:09.877Z,10.50
2022-09-25T20:17:37.621Z,10.50
2022-09-25T20:20:05.826Z,10.50
2022-09-25T20:22:34.986Z,10.50
2022-09-25T20:25:02.786Z,10.50
2022-09-25T20:27:30.585Z,10.50
2022-09-25T20:29:59.484Z,10.60
2022-09-25T20:32:27.228Z,10.50
2022-09-25T20:34:55.905Z,10.40
2022-09-25T20:37:23.689Z,10.30
2022-09-25T20:39:52.901Z,10.30
2022-09-25T20:42:21.261Z,10.20
2022-09-25T20:44:49.061Z,10.20
2022-09-25T20:47:18.375Z,10.20
2022-09-25T20:49:46.153Z,10.30
2022-09-25T20:52:14.486Z,10.20
2022-09-25T20:54:42.844Z,10.20
2022-09-25T20:57:12.284Z,10.10
2022-09-25T20:59:40.016Z,10.20
2022-09-25T21:02:07.935Z,10.10
2022-09-25T21:04:36.233Z,10.10
2022-09-25T21:07:04.440Z,10.10
2022-09-25T21:09:32.218Z,10.00
2022-09-25T21:11:59.995Z,9.90
2022-09-25T21:14:29.772Z,9.90
2022-09-25T21:16:57.602Z,9.90
2022-09-25T21:19:25.723Z,9.80
2022-09-25T21:21:53.503Z,9.70
2022-09-25T21:24:22.548Z,9.70
2022-09-25T21:26:51.081Z,9.70
2022-09-25T21:29:19.374Z,9.60
2022-09-25T21:31:50.873Z,9.60
2022-09-25T21:34:19.416Z,9.60
2022-09-25T21:36:47.934Z,9.60
2022-09-25T21:39:15.797Z,9.50
2022-09-25T21:41:44.151Z,9.50
2022-09-25T21:44:13.968Z,9.60
2022-09-25T21:46:42.081Z,9.50
2022-09-25T21:49:16.732Z,9.60
2022-09-25T21:51:45.439Z,9.60
2022-09-25T21:54:14.192Z,9.60
2022-09-25T21:56:42.721Z,9.60
2022-09-25T21:59:10.652Z,9.60
2022-09-25T22:01:39.997Z,9.60
2022-09-25T22:04:11.209Z,9.60
2022-09-25T22:06:41.900Z,9.60
2022-09-25T22:09:12.421Z,9.50
2022-09-25T22:11:41.388Z,9.60
2022-09-25T22:14:14.729Z,9.60
2022-09-25T22:16:44.334Z,9.60
2022-09-25T22:19:14.529Z,9.60
2022-09-25T22:21:45.545Z,9.60
2022-09-25T22:24:13.371Z,9.60
2022-09-25T22:26:42.872Z,9.60
2022-09-25T22:29:11.497Z,9.60
2022-09-25T22:31:42.804Z,9.60
2022-09-25T22:34:16.545Z,9.60
2022-09-25T22:36:45.888Z,9.60
2022-09-25T22:39:16.059Z,9.60
2022-09-25T22:41:44.114Z,9.60
2022-09-25T22:44:11.969Z,9.60
2022-09-25T22:46:39.790Z,9.50
2022-09-25T22:49:07.812Z,9.60
2022-09-25T22:51:35.644Z,9.60
2022-09-25T22:54:04.956Z,9.60
2022-09-25T22:56:34.285Z,9.60
2022-09-25T22:59:03.521Z,9.50
2022-09-25T23:01:34.119Z,9.50
2022-09-25T23:04:03.934Z,9.60
2022-09-25T23:06:33.895Z,9.60
2022-09-25T23:09:04.914Z,9.60
2022-09-25T23:11:33.233Z,9.60
2022-09-25T23:14:02.502Z,9.50
2022-09-25T23:16:35.405Z,9.50
2022-09-25T23:19:04.066Z,9.50
2022-09-25T23:21:33.281Z,9.50
2022-09-25T23:24:02.702Z,9.50
2022-09-25T23:26:32.023Z,9.60
2022-09-25T23:29:01.603Z,9.50
2022-09-25T23:31:30.948Z,9.50
2022-09-25T23:34:00.061Z,9.50
2022-09-25T23:36:29.621Z,9.50
2022-09-25T23:39:00.061Z,9.50
2022-09-25T23:41:29.930Z,9.50
2022-09-25T23:44:00.043Z,9.50
2022-09-25T23:46:31.033Z,9.50
2022-09-25T23:48:59.936Z,9.60
2022-09-25T23:51:28.237Z,9.50
2022-09-25T23:53:57.953Z,9.60
2022-09-25T23:56:27.153Z,9.60
2022-09-25T23:58:56.987Z,9.50
